Seghill, United Kingdom
Current Conditions -  °F | °C
As of 7:50 PM on Saturday 25 Oct 2014 (Local Time) from EGNT Reporting Station
Few Clouds Few Clouds  
Wind Chill: 54°   Ceiling: Unl
Heat Index: 54°   Visibility: 6mi
Dew Point: 43°   Wind: 13mph
Humidity: 67%   Direction: 210°SSW
Pressure: 29.8"   Gusts: NA
Location:  55.06°N, 1.55°W
Report Text: EGNT 251850Z 21011KT 180V250 9999 FEW045 12/06 Q1009
Loading
Personal Weather Stations






























Interactive Weather Map
Tropical Storm Tracking
New forecast layout! Learn more

10-Day Weather Forecast

Advertisements
Track Severe Weather on mobile